createdAt,value
2022-09-30T00:02:19.092Z,18.47
2022-09-30T00:04:46.053Z,18.43
2022-09-30T00:07:13.060Z,18.43
2022-09-30T00:09:40.064Z,18.42
2022-09-30T00:12:07.109Z,18.39
2022-09-30T00:14:34.047Z,18.38
2022-09-30T00:17:00.954Z,18.37
2022-09-30T00:19:27.947Z,18.38
2022-09-30T00:21:54.917Z,18.38
2022-09-30T00:24:21.859Z,18.38
2022-09-30T00:26:48.786Z,18.37
2022-09-30T00:29:15.752Z,18.36
2022-09-30T00:31:42.837Z,18.36
2022-09-30T00:34:11.723Z,18.35
2022-09-30T00:36:52.259Z,18.33
2022-09-30T00:39:23.443Z,18.33
2022-09-30T00:41:52.546Z,18.31
2022-09-30T00:44:51.819Z,18.29
2022-09-30T00:47:32.321Z,18.29
2022-09-30T00:50:02.142Z,18.26
2022-09-30T00:52:30.250Z,18.25
2022-09-30T00:54:58.440Z,18.24
2022-09-30T00:57:25.381Z,18.23
2022-09-30T00:59:52.331Z,18.22
2022-09-30T01:02:19.348Z,18.22
2022-09-30T01:04:46.328Z,18.20
2022-09-30T01:07:13.401Z,18.22
2022-09-30T01:09:55.708Z,18.21
2022-09-30T01:12:36.672Z,18.21
2022-09-30T01:15:26.349Z,18.21
2022-09-30T01:18:24.893Z,18.21
2022-09-30T01:21:29.116Z,18.21
2022-09-30T01:24:29.619Z,18.20
2022-09-30T01:27:04.912Z,18.19
2022-09-30T01:29:31.759Z,18.17
2022-09-30T01:32:26.904Z,18.15
2022-09-30T01:35:04.941Z,18.14
2022-09-30T01:37:58.822Z,18.12
2022-09-30T01:40:34.321Z,18.12
2022-09-30T01:43:07.205Z,18.11
2022-09-30T01:45:35.310Z,18.09
2022-09-30T01:48:22.205Z,18.08
2022-09-30T01:51:24.466Z,18.10
2022-09-30T01:53:57.971Z,18.08
2022-09-30T01:56:30.621Z,18.08
2022-09-30T01:59:10.048Z,18.11
2022-09-30T02:01:45.153Z,18.10
2022-09-30T02:04:30.487Z,18.09
2022-09-30T02:07:00.452Z,18.09
2022-09-30T02:09:29.833Z,18.08
2022-09-30T02:11:56.789Z,18.09
2022-09-30T02:15:06.105Z,18.07
2022-09-30T02:18:09.214Z,18.07
2022-09-30T02:20:38.603Z,18.04
2022-09-30T02:23:26.959Z,18.04
2022-09-30T02:26:11.884Z,18.02
2022-09-30T02:28:42.411Z,18.02
2022-09-30T02:31:10.643Z,18.01
2022-09-30T02:34:14.068Z,17.99
2022-09-30T02:37:02.486Z,17.99
2022-09-30T02:39:48.246Z,17.99
2022-09-30T02:42:29.754Z,17.98
2022-09-30T02:45:01.321Z,18.00
2022-09-30T02:47:48.932Z,17.99
2022-09-30T02:50:24.517Z,18.00
2022-09-30T02:53:08.284Z,18.00
2022-09-30T02:55:39.880Z,17.99
2022-09-30T02:58:14.792Z,18.00
2022-09-30T03:00:41.909Z,17.99
2022-09-30T03:03:35.678Z,17.97
2022-09-30T03:06:02.913Z,17.95
2022-09-30T03:08:29.887Z,17.95
2022-09-30T03:10:56.845Z,17.95
2022-09-30T03:14:02.718Z,17.93
2022-09-30T03:16:44.624Z,17.93
2022-09-30T03:19:28.453Z,17.93
2022-09-30T03:21:59.268Z,17.92
2022-09-30T03:24:47.720Z,17.91
2022-09-30T03:27:27.943Z,17.92
2022-09-30T03:30:05.736Z,17.91
2022-09-30T03:32:57.221Z,17.92
2022-09-30T03:35:39.149Z,17.92
2022-09-30T03:38:27.510Z,17.92
2022-09-30T03:41:26.558Z,17.92
2022-09-30T03:43:59.815Z,17.93
2022-09-30T03:46:52.039Z,17.90
2022-09-30T03:49:31.544Z,17.90
2022-09-30T03:51:58.863Z,17.90
2022-09-30T03:54:26.159Z,17.89
2022-09-30T03:56:53.111Z,17.89
2022-09-30T03:59:23.730Z,17.87
2022-09-30T04:01:51.085Z,17.87
2022-09-30T04:04:18.252Z,17.87
2022-09-30T04:06:45.333Z,17.85
2022-09-30T04:09:12.315Z,17.86
2022-09-30T04:11:39.257Z,17.85
2022-09-30T04:14:06.261Z,17.84
2022-09-30T04:16:33.761Z,17.85
2022-09-30T04:19:00.822Z,17.85
2022-09-30T04:21:30.421Z,17.85
2022-09-30T04:23:57.396Z,17.84
2022-09-30T04:26:24.338Z,17.86
2022-09-30T04:28:52.704Z,17.86
2022-09-30T04:31:21.524Z,17.86
2022-09-30T04:33:48.572Z,17.84
2022-09-30T04:36:15.552Z,17.84
2022-09-30T04:38:42.675Z,17.82
2022-09-30T04:41:12.362Z,17.83
2022-09-30T04:43:39.247Z,17.81
2022-09-30T04:46:06.593Z,17.81
2022-09-30T04:48:33.526Z,17.80
2022-09-30T04:51:01.031Z,17.80
2022-09-30T04:53:28.417Z,17.80
2022-09-30T04:56:01.564Z,17.79
2022-09-30T04:58:32.237Z,17.77
2022-09-30T05:01:11.282Z,17.77
2022-09-30T05:03:38.309Z,17.77
2022-09-30T05:06:05.631Z,17.77
2022-09-30T05:08:34.084Z,17.78
2022-09-30T05:11:03.005Z,17.77
2022-09-30T05:13:34.628Z,17.78
2022-09-30T05:16:02.413Z,17.80
2022-09-30T05:18:29.621Z,17.78
2022-09-30T05:21:00.339Z,17.78
2022-09-30T05:23:28.200Z,17.78
2022-09-30T05:25:55.138Z,17.78
2022-09-30T05:28:22.117Z,17.76
2022-09-30T05:30:50.713Z,17.76
2022-09-30T05:33:17.626Z,17.74
2022-09-30T05:35:44.597Z,17.75
2022-09-30T05:38:11.660Z,17.74
2022-09-30T05:40:41.747Z,17.74
2022-09-30T05:43:08.769Z,17.74
2022-09-30T05:45:35.661Z,17.73
2022-09-30T05:48:02.898Z,17.73
2022-09-30T05:50:30.022Z,17.72
2022-09-30T05:52:57.753Z,17.73
2022-09-30T05:55:24.681Z,17.73
2022-09-30T05:57:51.798Z,17.73
2022-09-30T06:00:19.104Z,17.73
2022-09-30T06:02:46.146Z,17.74
2022-09-30T06:05:13.298Z,17.73
2022-09-30T06:07:40.213Z,17.74
2022-09-30T06:10:08.223Z,17.74
2022-09-30T06:12:36.491Z,17.74
2022-09-30T06:15:03.520Z,17.73
2022-09-30T06:17:30.414Z,17.73
2022-09-30T06:19:57.427Z,17.71
2022-09-30T06:22:24.347Z,17.72
2022-09-30T06:24:54.954Z,17.71
2022-09-30T06:27:22.351Z,17.71
2022-09-30T06:29:49.636Z,17.72
2022-09-30T06:32:17.514Z,17.72
2022-09-30T06:34:45.156Z,17.70
2022-09-30T06:37:14.005Z,17.70
2022-09-30T06:39:42.031Z,17.69
2022-09-30T06:42:08.959Z,17.70
2022-09-30T06:44:46.616Z,17.70
2022-09-30T06:47:25.298Z,17.71
2022-09-30T06:49:53.393Z,17.73
2022-09-30T06:52:20.562Z,17.73
2022-09-30T06:54:47.641Z,17.73
2022-09-30T06:57:14.644Z,17.74
2022-09-30T06:59:41.540Z,17.75
2022-09-30T07:02:10.416Z,17.74
2022-09-30T07:04:37.447Z,17.74
2022-09-30T07:07:04.411Z,17.74
2022-09-30T07:09:32.321Z,17.73
2022-09-30T07:11:59.287Z,17.73
2022-09-30T07:14:26.277Z,17.72
2022-09-30T07:16:53.624Z,17.73
2022-09-30T07:19:23.668Z,17.74
2022-09-30T07:21:50.860Z,17.75
2022-09-30T07:24:18.252Z,17.78
2022-09-30T07:26:45.625Z,17.80
2022-09-30T07:29:14.100Z,17.81
2022-09-30T07:31:41.384Z,17.80
2022-09-30T07:34:08.979Z,17.80
2022-09-30T07:36:38.051Z,17.81
2022-09-30T07:39:06.793Z,17.80
2022-09-30T07:41:36.195Z,17.80
2022-09-30T07:44:03.212Z,17.82
2022-09-30T07:46:31.248Z,17.83
2022-09-30T07:49:01.127Z,17.84
2022-09-30T07:51:39.264Z,17.85
2022-09-30T07:54:08.345Z,17.85
2022-09-30T07:56:57.905Z,17.86
2022-09-30T07:59:23.806Z,17.84
2022-09-30T08:01:51.193Z,17.86
2022-09-30T08:04:18.694Z,17.84
2022-09-30T08:06:47.636Z,17.86
2022-09-30T08:09:15.936Z,17.86
2022-09-30T08:11:43.273Z,17.85
2022-09-30T08:14:16.584Z,17.84
2022-09-30T08:16:43.583Z,17.84
2022-09-30T08:19:16.897Z,17.84
2022-09-30T08:21:44.417Z,17.83
2022-09-30T08:24:11.648Z,17.85
2022-09-30T08:26:38.869Z,17.84
2022-09-30T08:29:06.101Z,17.84
2022-09-30T08:31:35.979Z,17.86
2022-09-30T08:34:03.545Z,17.84
2022-09-30T08:36:30.586Z,17.85
2022-09-30T08:38:57.651Z,17.84
2022-09-30T08:41:39.698Z,17.84
2022-09-30T08:44:20.419Z,17.84
2022-09-30T08:47:13.205Z,17.84
2022-09-30T08:49:58.450Z,17.83
2022-09-30T08:52:48.030Z,17.82
2022-09-30T08:55:35.010Z,17.82
2022-09-30T08:58:02.000Z,17.79
2022-09-30T09:00:28.893Z,17.78
2022-09-30T09:02:57.965Z,17.75
2022-09-30T09:05:51.574Z,17.73
2022-09-30T09:08:44.077Z,17.75
2022-09-30T09:11:30.600Z,17.78
2022-09-30T09:14:05.666Z,17.80
2022-09-30T09:16:36.113Z,17.81
2022-09-30T09:19:11.108Z,17.81
2022-09-30T09:21:51.882Z,17.82
2022-09-30T09:24:20.880Z,17.82
2022-09-30T09:26:47.929Z,17.83
2022-09-30T09:29:38.686Z,17.83
2022-09-30T09:32:17.835Z,17.84
2022-09-30T09:34:46.378Z,17.83
2022-09-30T09:37:19.402Z,17.82
2022-09-30T09:39:49.383Z,17.82
2022-09-30T09:42:43.710Z,17.81
2022-09-30T09:45:45.819Z,17.81
2022-09-30T09:48:15.975Z,17.80
2022-09-30T09:51:06.634Z,17.80
2022-09-30T09:53:47.606Z,17.79
2022-09-30T09:56:19.480Z,17.79
2022-09-30T09:59:13.462Z,17.78
2022-09-30T10:01:46.377Z,17.79
2022-09-30T10:04:27.789Z,17.79
2022-09-30T10:07:01.977Z,17.77
2022-09-30T10:09:39.061Z,17.77
2022-09-30T10:12:05.925Z,17.77
2022-09-30T10:14:35.608Z,17.78
2022-09-30T10:17:03.779Z,17.78
2022-09-30T10:19:31.872Z,17.77
2022-09-30T10:22:12.135Z,17.78
2022-09-30T10:24:39.678Z,17.78
2022-09-30T10:27:32.187Z,17.76
2022-09-30T10:29:59.124Z,17.75
2022-09-30T10:32:26.087Z,17.74
2022-09-30T10:35:01.263Z,17.73
2022-09-30T10:37:28.202Z,17.73
2022-09-30T10:40:01.622Z,17.72
2022-09-30T10:42:30.001Z,17.71
2022-09-30T10:45:02.603Z,17.71
2022-09-30T10:47:34.087Z,17.71
2022-09-30T10:50:11.766Z,17.71
2022-09-30T10:52:44.831Z,17.72
2022-09-30T10:55:20.615Z,17.71
2022-09-30T10:57:48.264Z,17.71
2022-09-30T11:00:18.839Z,17.72
2022-09-30T11:03:06.229Z,17.71
2022-09-30T11:05:43.959Z,17.71
2022-09-30T11:08:44.567Z,17.71
2022-09-30T11:11:27.489Z,17.71
2022-09-30T11:14:02.353Z,17.71
2022-09-30T11:16:41.874Z,17.71
2022-09-30T11:19:29.250Z,17.70
2022-09-30T11:22:31.679Z,17.69
2022-09-30T11:24:58.715Z,17.70
2022-09-30T11:27:40.708Z,17.70
2022-09-30T11:30:30.558Z,17.69
2022-09-30T11:33:14.232Z,17.69
2022-09-30T11:36:10.364Z,17.69
2022-09-30T11:38:50.816Z,17.70
2022-09-30T11:41:23.286Z,17.70
2022-09-30T11:44:05.902Z,17.70
2022-09-30T11:46:54.063Z,17.70
2022-09-30T11:49:33.155Z,17.70
2022-09-30T11:52:25.369Z,17.70
2022-09-30T11:54:55.339Z,17.71
2022-09-30T11:57:44.653Z,17.70
2022-09-30T12:00:18.893Z,17.70
2022-09-30T12:02:56.155Z,17.71
2022-09-30T12:05:43.759Z,17.70
2022-09-30T12:08:17.438Z,17.71
2022-09-30T12:11:00.873Z,17.71
2022-09-30T12:13:52.382Z,17.70
2022-09-30T12:16:24.186Z,17.70
2022-09-30T12:18:57.548Z,17.70
2022-09-30T12:21:37.803Z,17.70
2022-09-30T12:24:12.548Z,17.72
2022-09-30T12:26:40.273Z,17.72
2022-09-30T12:29:48.009Z,17.73
2022-09-30T12:32:37.579Z,17.75
2022-09-30T12:35:23.167Z,17.74
2022-09-30T12:38:04.946Z,17.74
2022-09-30T12:40:43.740Z,17.75
2022-09-30T12:43:34.622Z,17.74
2022-09-30T12:46:22.356Z,17.75
2022-09-30T12:48:58.316Z,17.74
2022-09-30T12:51:31.856Z,17.74
2022-09-30T12:54:22.859Z,17.72
2022-09-30T12:56:55.136Z,17.72
2022-09-30T12:59:30.384Z,17.73
2022-09-30T13:01:58.254Z,17.72
2022-09-30T13:04:33.447Z,17.71
2022-09-30T13:07:00.330Z,17.71
2022-09-30T13:09:52.258Z,17.71
2022-09-30T13:12:25.793Z,17.70
2022-09-30T13:15:18.819Z,17.70
2022-09-30T13:17:46.148Z,17.70
2022-09-30T13:20:51.099Z,17.69
2022-09-30T13:23:47.544Z,17.70
2022-09-30T13:26:29.471Z,17.69
2022-09-30T13:29:22.115Z,17.68
2022-09-30T13:31:49.412Z,17.67
2022-09-30T13:34:33.005Z,17.66
2022-09-30T13:37:04.222Z,17.66
2022-09-30T13:39:48.233Z,17.63
2022-09-30T13:42:22.144Z,17.62
2022-09-30T13:45:21.911Z,17.60
2022-09-30T13:47:48.773Z,17.59
2022-09-30T13:50:27.814Z,17.59
2022-09-30T13:52:56.883Z,17.58
2022-09-30T13:55:34.421Z,17.57
2022-09-30T13:58:12.082Z,17.57
2022-09-30T14:00:47.204Z,17.58
2022-09-30T14:03:42.410Z,17.60
2022-09-30T14:06:42.218Z,17.61
2022-09-30T14:09:39.060Z,17.61
2022-09-30T14:12:18.629Z,17.61
2022-09-30T14:14:45.462Z,17.61
2022-09-30T14:17:45.927Z,17.61
2022-09-30T14:20:28.219Z,17.61
2022-09-30T14:22:55.828Z,17.60
2022-09-30T14:25:23.301Z,17.61
2022-09-30T14:28:08.633Z,17.61
2022-09-30T14:31:03.094Z,17.61
2022-09-30T14:33:31.798Z,17.60
2022-09-30T14:36:19.249Z,17.60
2022-09-30T14:39:06.349Z,17.59
2022-09-30T14:41:34.946Z,17.53
2022-09-30T14:44:08.335Z,17.43
2022-09-30T14:46:39.802Z,17.30
2022-09-30T14:49:09.790Z,17.17
2022-09-30T14:51:44.949Z,17.06
2022-09-30T14:54:19.968Z,16.98
2022-09-30T14:56:47.146Z,16.97
2022-09-30T14:59:27.854Z,17.02
2022-09-30T15:02:02.760Z,17.07
2022-09-30T15:04:32.058Z,17.12
2022-09-30T15:07:00.671Z,17.15
2022-09-30T15:09:30.081Z,17.19
2022-09-30T15:11:58.499Z,17.20
2022-09-30T15:14:25.448Z,17.23
2022-09-30T15:16:59.390Z,17.25
2022-09-30T15:19:35.179Z,17.26
2022-09-30T15:22:03.805Z,17.27
2022-09-30T15:24:31.583Z,17.28
2022-09-30T15:26:58.982Z,17.27
2022-09-30T15:29:26.070Z,17.28
2022-09-30T15:32:02.528Z,17.29
2022-09-30T15:34:30.633Z,17.28
2022-09-30T15:37:06.951Z,17.29
2022-09-30T15:40:05.538Z,17.29
2022-09-30T15:42:32.517Z,17.30
2022-09-30T15:44:59.627Z,17.30
2022-09-30T15:47:27.323Z,17.30
2022-09-30T15:49:54.393Z,17.30
2022-09-30T15:52:24.215Z,17.31
2022-09-30T15:54:51.250Z,17.32
2022-09-30T15:57:51.499Z,17.32
2022-09-30T16:00:36.387Z,17.32
2022-09-30T16:03:19.429Z,17.31
2022-09-30T16:05:48.727Z,17.32
2022-09-30T16:08:48.217Z,17.34
2022-09-30T16:11:24.628Z,17.33
2022-09-30T16:13:51.610Z,17.32
2022-09-30T16:16:23.297Z,17.32
2022-09-30T16:18:50.478Z,17.32
2022-09-30T16:21:45.021Z,17.32
2022-09-30T16:24:30.557Z,17.33
2022-09-30T16:26:58.666Z,17.32
2022-09-30T16:29:26.599Z,17.32
2022-09-30T16:31:56.956Z,17.31
2022-09-30T16:34:27.970Z,17.32
2022-09-30T16:37:05.964Z,17.33
2022-09-30T16:39:32.886Z,17.33
2022-09-30T16:41:59.838Z,17.32
2022-09-30T16:44:26.740Z,17.32
2022-09-30T16:46:53.753Z,17.32
2022-09-30T16:49:20.875Z,17.33
2022-09-30T16:51:47.786Z,17.33
2022-09-30T16:54:14.728Z,17.33
2022-09-30T16:56:41.679Z,17.32
2022-09-30T16:59:13.670Z,17.33
2022-09-30T17:01:40.939Z,17.32
2022-09-30T17:04:08.094Z,17.32
2022-09-30T17:06:35.558Z,17.31
2022-09-30T17:09:03.055Z,17.31
2022-09-30T17:11:33.662Z,17.30
2022-09-30T17:14:00.957Z,17.31
2022-09-30T17:16:28.316Z,17.32
2022-09-30T17:18:55.304Z,17.30
2022-09-30T17:21:24.160Z,17.31
2022-09-30T17:23:51.307Z,17.31
2022-09-30T17:26:18.843Z,17.31
2022-09-30T17:28:46.418Z,17.31
2022-09-30T17:31:13.550Z,17.31
2022-09-30T17:33:40.849Z,17.30
2022-09-30T17:36:12.746Z,17.31
2022-09-30T17:38:39.781Z,17.31
2022-09-30T17:41:25.953Z,17.30
2022-09-30T17:43:52.929Z,17.30
2022-09-30T17:46:23.520Z,17.30
2022-09-30T17:48:51.440Z,17.31
2022-09-30T17:51:18.415Z,17.30
2022-09-30T17:53:45.847Z,17.30
2022-09-30T17:56:19.718Z,17.31
2022-09-30T17:58:48.026Z,17.29
2022-09-30T18:01:21.007Z,17.29
2022-09-30T18:03:48.338Z,17.30
2022-09-30T18:06:15.618Z,17.29
2022-09-30T18:08:43.861Z,17.29
2022-09-30T18:11:11.741Z,17.29
2022-09-30T18:13:40.756Z,17.29
2022-09-30T18:16:08.338Z,17.28
2022-09-30T18:18:36.124Z,17.28
2022-09-30T18:21:04.029Z,17.29
2022-09-30T18:23:31.195Z,17.29
2022-09-30T18:25:58.753Z,17.29
2022-09-30T18:28:27.108Z,17.29
2022-09-30T18:30:54.341Z,17.29
2022-09-30T18:33:22.575Z,17.28
2022-09-30T18:35:51.441Z,17.28
2022-09-30T18:38:19.027Z,17.28
2022-09-30T18:40:46.374Z,17.28
2022-09-30T18:43:17.200Z,17.28
2022-09-30T18:45:44.524Z,17.28
2022-09-30T18:48:13.306Z,17.28
2022-09-30T18:50:40.698Z,17.28
2022-09-30T18:53:10.217Z,17.28
2022-09-30T18:55:41.775Z,17.29
2022-09-30T18:58:10.560Z,17.28
2022-09-30T19:00:38.017Z,17.29
2022-09-30T19:03:05.463Z,17.28
2022-09-30T19:05:33.081Z,17.29
2022-09-30T19:08:05.000Z,17.28
2022-09-30T19:10:32.242Z,17.28
2022-09-30T19:13:01.661Z,17.28
2022-09-30T19:15:31.381Z,17.28
2022-09-30T19:17:59.197Z,17.28
2022-09-30T19:20:28.509Z,17.27
2022-09-30T19:22:55.526Z,17.26
2022-09-30T19:25:24.082Z,17.27
2022-09-30T19:27:55.946Z,17.27
2022-09-30T19:30:25.451Z,17.26
2022-09-30T19:32:59.531Z,17.26
2022-09-30T19:35:40.136Z,17.25
2022-09-30T19:38:34.905Z,17.26
2022-09-30T19:41:05.044Z,17.26
2022-09-30T19:43:32.212Z,17.26
2022-09-30T19:46:01.255Z,17.26
2022-09-30T19:48:29.910Z,17.27
2022-09-30T19:51:04.584Z,17.27
2022-09-30T19:53:32.618Z,17.26
2022-09-30T19:56:23.518Z,17.25
2022-09-30T19:59:00.379Z,17.25
2022-09-30T20:01:30.276Z,17.25
2022-09-30T20:04:00.518Z,17.25
2022-09-30T20:06:28.337Z,17.25
2022-09-30T20:09:00.494Z,17.26
2022-09-30T20:11:30.059Z,17.25
2022-09-30T20:14:16.317Z,17.25
2022-09-30T20:16:49.910Z,17.24
2022-09-30T20:19:20.273Z,17.25
2022-09-30T20:21:48.176Z,17.24
2022-09-30T20:24:16.413Z,17.24
2022-09-30T20:26:43.966Z,17.24
2022-09-30T20:29:11.590Z,17.24
2022-09-30T20:31:42.331Z,17.26
2022-09-30T20:34:12.005Z,17.25
2022-09-30T20:36:40.527Z,17.26
2022-09-30T20:39:08.125Z,17.25
2022-09-30T20:41:37.228Z,17.25
2022-09-30T20:44:08.700Z,17.24
2022-09-30T20:46:35.746Z,17.25
2022-09-30T20:49:02.950Z,17.25
2022-09-30T20:51:30.977Z,17.24
2022-09-30T20:53:58.664Z,17.24
2022-09-30T20:56:26.856Z,17.24
2022-09-30T20:58:55.099Z,17.23
2022-09-30T21:01:23.327Z,17.23
2022-09-30T21:03:51.895Z,17.23
2022-09-30T21:06:25.506Z,17.23
2022-09-30T21:08:53.071Z,17.22
2022-09-30T21:11:22.502Z,17.23
2022-09-30T21:13:53.073Z,17.23
2022-09-30T21:16:21.877Z,17.23
2022-09-30T21:18:52.076Z,17.23
2022-09-30T21:21:19.898Z,17.22
2022-09-30T21:23:46.873Z,17.23
2022-09-30T21:26:15.174Z,17.22
2022-09-30T21:28:45.581Z,17.22
2022-09-30T21:31:18.732Z,17.22
2022-09-30T21:33:49.377Z,17.22
2022-09-30T21:36:16.474Z,17.22
2022-09-30T21:38:43.485Z,17.22
2022-09-30T21:41:10.452Z,17.22
2022-09-30T21:43:37.762Z,17.21
2022-09-30T21:46:06.681Z,17.22
2022-09-30T21:48:33.900Z,17.22
2022-09-30T21:51:01.004Z,17.21
2022-09-30T21:53:28.136Z,17.21
2022-09-30T21:55:55.889Z,17.21
2022-09-30T21:58:24.177Z,17.20
2022-09-30T22:00:51.944Z,17.21
2022-09-30T22:03:18.970Z,17.20
2022-09-30T22:05:55.173Z,17.21
2022-09-30T22:08:22.710Z,17.21
2022-09-30T22:10:51.270Z,17.22
2022-09-30T22:13:18.664Z,17.21
2022-09-30T22:15:46.612Z,17.21
2022-09-30T22:18:17.519Z,17.21
2022-09-30T22:20:45.027Z,17.21
2022-09-30T22:23:12.184Z,17.20
2022-09-30T22:25:39.209Z,17.20
2022-09-30T22:28:06.219Z,17.19
2022-09-30T22:30:33.400Z,17.20
2022-09-30T22:33:18.603Z,17.21
2022-09-30T22:36:04.278Z,17.20
2022-09-30T22:38:31.390Z,17.20
2022-09-30T22:40:59.836Z,17.19
2022-09-30T22:43:27.195Z,17.19
2022-09-30T22:46:04.232Z,17.19
2022-09-30T22:48:31.407Z,17.17
2022-09-30T22:50:58.710Z,17.16
2022-09-30T22:53:26.266Z,17.16
2022-09-30T22:55:53.296Z,17.16
2022-09-30T22:58:21.249Z,17.19
2022-09-30T23:00:58.836Z,17.19
2022-09-30T23:03:25.944Z,17.18
2022-09-30T23:05:53.415Z,17.19
2022-09-30T23:08:20.372Z,17.18
2022-09-30T23:10:50.016Z,17.18
2022-09-30T23:13:22.467Z,17.18
2022-09-30T23:15:49.456Z,17.17
2022-09-30T23:18:17.393Z,17.17
2022-09-30T23:20:59.912Z,17.17
2022-09-30T23:23:29.039Z,17.17
2022-09-30T23:26:00.869Z,17.16
2022-09-30T23:28:27.960Z,17.16
2022-09-30T23:30:55.028Z,17.16
2022-09-30T23:33:22.004Z,17.16
2022-09-30T23:35:49.036Z,17.15
2022-09-30T23:38:16.039Z,17.15
2022-09-30T23:40:45.275Z,17.15
2022-09-30T23:43:12.195Z,17.16
2022-09-30T23:45:39.251Z,17.16
2022-09-30T23:48:06.285Z,17.16
2022-09-30T23:50:33.658Z,17.16
2022-09-30T23:53:00.743Z,17.17
2022-09-30T23:55:28.554Z,17.16
2022-09-30T23:57:56.927Z,17.16
